createdAt,value
2022-08-30T00:02:19.247Z,100.00
2022-08-30T00:04:46.177Z,100.00
2022-08-30T00:07:12.948Z,100.00
2022-08-30T00:09:41.100Z,100.00
2022-08-30T00:12:09.133Z,100.00
2022-08-30T00:14:35.967Z,100.00
2022-08-30T00:17:02.821Z,100.00
2022-08-30T00:19:29.790Z,100.00
2022-08-30T00:21:56.629Z,100.00
2022-08-30T00:24:23.554Z,100.00
2022-08-30T00:26:50.573Z,100.00
2022-08-30T00:29:17.344Z,100.00
2022-08-30T00:31:44.219Z,100.00
2022-08-30T00:34:11.155Z,100.00
2022-08-30T00:36:37.956Z,100.00
2022-08-30T00:39:06.534Z,100.00
2022-08-30T00:41:33.482Z,100.00
2022-08-30T00:44:00.783Z,100.00
2022-08-30T00:46:28.376Z,100.00
2022-08-30T00:48:56.497Z,100.00
2022-08-30T00:51:24.389Z,100.00
2022-08-30T00:53:55.157Z,100.00
2022-08-30T00:56:25.414Z,100.00
2022-08-30T00:58:55.950Z,100.00
2022-08-30T01:01:23.618Z,100.00
2022-08-30T01:03:50.965Z,100.00
2022-08-30T01:06:18.559Z,100.00
2022-08-30T01:08:47.354Z,100.00
2022-08-30T01:11:20.181Z,100.00
2022-08-30T01:13:48.863Z,100.00
2022-08-30T01:16:16.045Z,100.00
2022-08-30T01:18:44.685Z,100.00
2022-08-30T01:21:22.655Z,100.00
2022-08-30T01:23:53.898Z,100.00
2022-08-30T01:26:21.930Z,100.00
2022-08-30T01:28:53.107Z,100.00
2022-08-30T01:31:20.066Z,100.00
2022-08-30T01:33:46.941Z,100.00
2022-08-30T01:36:15.535Z,100.00
2022-08-30T01:38:48.054Z,100.00
2022-08-30T01:41:14.824Z,100.00
2022-08-30T01:43:42.325Z,100.00
2022-08-30T01:46:11.160Z,100.00
2022-08-30T01:48:40.324Z,100.00
2022-08-30T01:51:12.220Z,100.00
2022-08-30T01:53:41.070Z,100.00
2022-08-30T01:56:08.739Z,100.00
2022-08-30T01:58:36.785Z,100.00
2022-08-30T02:01:09.818Z,100.00
2022-08-30T02:03:39.581Z,100.00
2022-08-30T02:06:08.627Z,100.00
2022-08-30T02:08:37.009Z,100.00
2022-08-30T02:11:04.704Z,100.00
2022-08-30T02:13:31.509Z,100.00
2022-08-30T02:15:58.985Z,100.00
2022-08-30T02:18:27.256Z,100.00
2022-08-30T02:20:54.077Z,100.00
2022-08-30T02:23:20.923Z,100.00
2022-08-30T02:25:47.737Z,100.00
2022-08-30T02:28:15.855Z,100.00
2022-08-30T02:30:46.045Z,100.00
2022-08-30T02:33:13.535Z,100.00
2022-08-30T02:35:40.707Z,100.00
2022-08-30T02:38:08.988Z,100.00
2022-08-30T02:40:35.967Z,100.00
2022-08-30T02:43:06.019Z,100.00
2022-08-30T02:45:33.034Z,100.00
2022-08-30T02:47:59.836Z,100.00
2022-08-30T02:50:26.725Z,100.00
2022-08-30T02:52:54.325Z,100.00
2022-08-30T02:55:22.816Z,100.00
2022-08-30T02:57:49.846Z,100.00
2022-08-30T03:00:19.452Z,100.00
2022-08-30T03:02:46.906Z,100.00
2022-08-30T03:05:14.965Z,100.00
2022-08-30T03:07:42.284Z,100.00
2022-08-30T03:10:10.381Z,100.00
2022-08-30T03:12:37.501Z,100.00
2022-08-30T03:15:06.682Z,100.00
2022-08-30T03:17:33.548Z,100.00
2022-08-30T03:20:01.158Z,100.00
2022-08-30T03:22:28.690Z,100.00
2022-08-30T03:24:59.763Z,100.00
2022-08-30T03:27:27.566Z,100.00
2022-08-30T03:29:54.821Z,100.00
2022-08-30T03:32:22.087Z,100.00
2022-08-30T03:34:49.190Z,100.00
2022-08-30T03:37:16.430Z,100.00
2022-08-30T03:39:45.443Z,100.00
2022-08-30T03:42:12.782Z,100.00
2022-08-30T03:44:40.023Z,100.00
2022-08-30T03:47:08.630Z,100.00
2022-08-30T03:49:36.017Z,100.00
2022-08-30T03:52:03.580Z,100.00
2022-08-30T03:54:30.896Z,100.00
2022-08-30T03:56:57.895Z,100.00
2022-08-30T03:59:24.734Z,100.00
2022-08-30T04:01:51.931Z,100.00
2022-08-30T04:04:21.138Z,100.00
2022-08-30T04:06:48.650Z,100.00
2022-08-30T04:09:15.429Z,100.00
2022-08-30T04:11:42.424Z,100.00
2022-08-30T04:14:09.330Z,100.00
2022-08-30T04:16:36.428Z,100.00
2022-08-30T04:19:04.296Z,100.00
2022-08-30T04:21:31.240Z,100.00
2022-08-30T04:23:58.591Z,100.00
2022-08-30T04:26:27.659Z,100.00
2022-08-30T04:28:56.614Z,100.00
2022-08-30T04:31:23.656Z,100.00
2022-08-30T04:33:50.743Z,100.00
2022-08-30T04:36:17.553Z,100.00
2022-08-30T04:38:44.347Z,100.00
2022-08-30T04:41:17.433Z,100.00
2022-08-30T04:43:46.211Z,100.00
2022-08-30T04:46:16.366Z,100.00
2022-08-30T04:48:43.549Z,100.00
2022-08-30T04:51:14.351Z,100.00
2022-08-30T04:53:42.613Z,100.00
2022-08-30T04:56:16.745Z,100.00
2022-08-30T04:58:47.740Z,100.00
2022-08-30T05:01:18.922Z,100.00
2022-08-30T05:03:48.062Z,100.00
2022-08-30T05:06:15.706Z,100.00
2022-08-30T05:08:46.647Z,100.00
2022-08-30T05:11:15.531Z,100.00
2022-08-30T05:13:43.580Z,100.00
2022-08-30T05:16:11.455Z,100.00
2022-08-30T05:18:38.243Z,100.00
2022-08-30T05:21:20.543Z,100.00
2022-08-30T05:23:48.193Z,100.00
2022-08-30T05:26:18.757Z,100.00
2022-08-30T05:28:46.101Z,100.00
2022-08-30T05:31:32.448Z,100.00
2022-08-30T05:34:00.438Z,100.00
2022-08-30T05:36:30.652Z,100.00
2022-08-30T05:38:58.008Z,100.00
2022-08-30T05:41:26.715Z,100.00
2022-08-30T05:43:59.664Z,100.00
2022-08-30T05:46:29.818Z,100.00
2022-08-30T05:48:57.291Z,100.00
2022-08-30T05:51:26.756Z,100.00
2022-08-30T05:53:54.102Z,100.00
2022-08-30T05:56:27.417Z,100.00
2022-08-30T05:58:55.259Z,100.00
2022-08-30T06:01:24.326Z,100.00
2022-08-30T06:03:51.801Z,100.00
2022-08-30T06:06:18.786Z,100.00
2022-08-30T06:08:47.526Z,100.00
2022-08-30T06:11:17.406Z,100.00
2022-08-30T06:13:44.146Z,100.00
2022-08-30T06:16:13.027Z,100.00
2022-08-30T06:18:39.930Z,100.00
2022-08-30T06:21:07.075Z,100.00
2022-08-30T06:23:34.080Z,100.00
2022-08-30T06:26:06.335Z,100.00
2022-08-30T06:28:33.929Z,87.26
2022-08-30T06:31:00.898Z,76.17
2022-08-30T06:33:27.743Z,70.10
2022-08-30T06:35:58.806Z,71.29
2022-08-30T06:38:26.143Z,68.53
2022-08-30T06:40:52.861Z,60.28
2022-08-30T06:43:19.880Z,56.62
2022-08-30T06:45:46.639Z,54.70
2022-08-30T06:48:13.475Z,58.02
2022-08-30T06:50:42.199Z,56.79
2022-08-30T06:53:10.159Z,54.20
2022-08-30T06:55:37.551Z,51.60
2022-08-30T06:58:05.076Z,57.35
2022-08-30T07:00:31.898Z,69.67
2022-08-30T07:02:59.348Z,66.41
2022-08-30T07:05:26.165Z,65.23
2022-08-30T07:07:55.743Z,68.83
2022-08-30T07:10:22.672Z,65.97
2022-08-30T07:12:49.693Z,63.88
2022-08-30T07:15:16.764Z,60.88
2022-08-30T07:18:02.174Z,59.50
2022-08-30T07:20:40.001Z,53.93
2022-08-30T07:23:08.719Z,57.84
2022-08-30T07:25:37.092Z,62.55
2022-08-30T07:28:05.776Z,60.88
2022-08-30T07:30:33.578Z,58.26
2022-08-30T07:33:00.728Z,53.00
2022-08-30T07:35:28.514Z,55.77
2022-08-30T07:37:55.559Z,56.28
2022-08-30T07:40:22.612Z,53.52
2022-08-30T07:42:49.545Z,55.66
2022-08-30T07:45:16.301Z,58.19
2022-08-30T07:47:43.142Z,59.79
2022-08-30T07:50:10.012Z,70.00
2022-08-30T07:55:06.454Z,77.74
2022-08-30T07:57:34.619Z,78.42
2022-08-30T08:00:01.997Z,78.26
2022-08-30T08:02:28.902Z,79.52
2022-08-30T08:04:55.787Z,77.87
2022-08-30T08:07:22.549Z,79.18
2022-08-30T08:09:49.547Z,74.40
2022-08-30T08:12:16.368Z,76.30
2022-08-30T08:14:43.478Z,74.24
2022-08-30T08:17:10.237Z,74.36
2022-08-30T08:19:37.049Z,69.77
2022-08-30T08:22:20.106Z,73.93
2022-08-30T08:24:47.930Z,72.90
2022-08-30T08:27:14.703Z,71.26
2022-08-30T08:29:41.506Z,75.14
2022-08-30T08:32:08.532Z,78.07
2022-08-30T08:34:36.016Z,76.45
2022-08-30T08:37:02.897Z,75.39
2022-08-30T08:39:29.669Z,76.88
2022-08-30T08:42:05.483Z,77.15
2022-08-30T08:45:10.291Z,69.45
2022-08-30T08:47:58.923Z,67.96
2022-08-30T08:50:29.580Z,65.23
2022-08-30T08:53:45.525Z,55.77
2022-08-30T08:56:15.273Z,53.40
2022-08-30T08:58:48.036Z,48.72
2022-08-30T09:01:17.368Z,50.49
2022-08-30T09:03:45.935Z,47.99
2022-08-30T09:06:45.313Z,48.52
2022-08-30T09:09:13.054Z,49.93
2022-08-30T09:11:41.800Z,53.16
2022-08-30T09:14:19.435Z,55.16
2022-08-30T09:16:47.818Z,56.50
2022-08-30T09:19:36.714Z,54.98
2022-08-30T09:22:31.252Z,57.28
2022-08-30T09:25:13.142Z,55.47
2022-08-30T09:27:45.322Z,59.67
2022-08-30T09:30:19.018Z,63.52
2022-08-30T09:32:56.998Z,63.77
2022-08-30T09:35:34.811Z,60.13
2022-08-30T09:38:10.739Z,59.80
2022-08-30T09:40:47.225Z,61.79
2022-08-30T09:43:16.767Z,61.46
2022-08-30T09:45:49.693Z,62.24
2022-08-30T09:48:41.008Z,59.53
2022-08-30T09:51:10.937Z,64.68
2022-08-30T09:56:50.750Z,64.12
2022-08-30T09:59:23.911Z,60.60
2022-08-30T10:02:01.448Z,56.28
2022-08-30T10:04:58.097Z,56.04
2022-08-30T10:07:45.024Z,56.11
2022-08-30T10:10:34.426Z,58.54
2022-08-30T10:13:30.938Z,60.08
2022-08-30T10:16:11.034Z,64.12
2022-08-30T10:18:43.527Z,59.70
2022-08-30T10:21:17.058Z,58.74
2022-08-30T10:23:55.687Z,60.87
2022-08-30T10:26:57.645Z,61.75
2022-08-30T10:29:31.664Z,61.27
2022-08-30T10:32:18.857Z,59.00
2022-08-30T10:34:55.030Z,57.22
2022-08-30T10:37:30.074Z,54.83
2022-08-30T10:40:43.616Z,55.91
2022-08-30T10:43:22.538Z,55.96
2022-08-30T10:45:51.256Z,55.96
2022-08-30T10:48:17.947Z,54.54
2022-08-30T10:50:50.334Z,53.55
2022-08-30T10:53:20.538Z,53.77
2022-08-30T10:55:53.533Z,54.04
2022-08-30T10:58:21.052Z,52.90
2022-08-30T11:01:12.783Z,54.38
2022-08-30T11:04:03.732Z,54.89
2022-08-30T11:07:01.483Z,54.15
2022-08-30T11:09:53.417Z,51.54
2022-08-30T11:12:31.950Z,49.47
2022-08-30T11:15:00.216Z,48.81
2022-08-30T11:17:35.961Z,51.20
2022-08-30T11:20:05.914Z,51.91
2022-08-30T11:22:39.282Z,51.14
2022-08-30T11:25:15.740Z,49.36
2022-08-30T11:27:56.565Z,46.66
2022-08-30T11:30:27.381Z,47.67
2022-08-30T11:33:13.091Z,46.54
2022-08-30T11:35:48.341Z,46.35
2022-08-30T11:38:18.624Z,46.25
2022-08-30T11:40:49.442Z,48.18
2022-08-30T11:43:34.702Z,48.40
2022-08-30T11:46:16.215Z,44.21
2022-08-30T11:49:06.513Z,45.04
2022-08-30T11:52:26.934Z,47.95
2022-08-30T11:54:57.926Z,49.17
2022-08-30T11:57:38.358Z,47.73
2022-08-30T12:00:09.097Z,48.82
2022-08-30T12:03:03.800Z,48.38
2022-08-30T12:05:42.975Z,46.91
2022-08-30T12:08:36.141Z,49.42
2022-08-30T12:11:32.295Z,46.10
2022-08-30T12:14:00.972Z,46.29
2022-08-30T12:17:03.543Z,45.25
2022-08-30T12:19:32.638Z,45.64
2022-08-30T12:22:04.471Z,45.68
2022-08-30T12:24:43.753Z,45.76
2022-08-30T12:27:32.830Z,43.44
2022-08-30T12:30:08.049Z,43.11
2022-08-30T12:32:43.962Z,44.19
2022-08-30T12:35:20.765Z,43.26
2022-08-30T12:38:03.167Z,44.19
2022-08-30T12:40:31.803Z,46.03
2022-08-30T12:43:01.765Z,42.66
2022-08-30T12:45:41.809Z,41.59
2022-08-30T12:48:19.655Z,43.13
2022-08-30T12:50:51.961Z,43.88
2022-08-30T12:53:42.272Z,43.35
2022-08-30T12:56:14.782Z,44.64
2022-08-30T12:58:52.721Z,45.49
2022-08-30T13:01:31.343Z,45.21
2022-08-30T13:04:18.713Z,45.92
2022-08-30T13:06:58.822Z,47.87
2022-08-30T13:09:42.590Z,48.85
2022-08-30T13:12:21.606Z,52.63
2022-08-30T13:14:50.102Z,51.23
2022-08-30T13:17:19.241Z,52.77
2022-08-30T13:20:25.828Z,51.73
2022-08-30T13:23:08.735Z,51.28
2022-08-30T13:25:38.416Z,53.11
2022-08-30T13:28:06.576Z,51.77
2022-08-30T13:30:34.036Z,51.77
2022-08-30T13:33:03.634Z,52.62
2022-08-30T13:35:31.534Z,52.47
2022-08-30T13:38:00.604Z,48.74
2022-08-30T13:40:27.779Z,48.05
2022-08-30T13:42:54.453Z,49.39
2022-08-30T13:48:10.981Z,45.59
2022-08-30T13:50:37.988Z,46.54
2022-08-30T13:53:04.644Z,46.29
2022-08-30T13:55:31.643Z,46.81
2022-08-30T13:57:58.338Z,45.94
2022-08-30T14:00:25.573Z,46.30
2022-08-30T14:03:00.118Z,46.38
2022-08-30T14:05:48.915Z,46.14
2022-08-30T14:11:05.305Z,45.82
2022-08-30T14:13:32.708Z,46.47
2022-08-30T14:18:47.622Z,46.96
2022-08-30T14:21:15.894Z,46.50
2022-08-30T14:23:42.562Z,47.23
2022-08-30T14:26:20.265Z,46.46
2022-08-30T14:28:47.004Z,47.42
2022-08-30T14:31:19.949Z,47.92
2022-08-30T14:33:46.994Z,48.02
2022-08-30T14:36:15.411Z,49.33
2022-08-30T14:38:43.312Z,48.80
2022-08-30T14:41:11.088Z,49.30
2022-08-30T14:43:40.734Z,50.31
2022-08-30T14:46:10.028Z,50.63
2022-08-30T14:48:37.997Z,50.14
2022-08-30T14:51:22.125Z,50.27
2022-08-30T14:53:52.311Z,50.13
2022-08-30T14:56:21.021Z,49.89
2022-08-30T14:58:52.896Z,50.63
2022-08-30T15:01:20.815Z,50.77
2022-08-30T15:03:47.750Z,49.79
2022-08-30T15:06:15.558Z,48.85
2022-08-30T15:08:43.301Z,49.06
2022-08-30T15:11:18.454Z,48.22
2022-08-30T15:13:46.134Z,50.31
2022-08-30T15:16:26.051Z,50.11
2022-08-30T15:18:54.643Z,50.73
2022-08-30T15:21:34.363Z,50.99
2022-08-30T15:24:05.469Z,51.79
2022-08-30T15:26:34.139Z,49.28
2022-08-30T15:29:00.938Z,49.24
2022-08-30T15:31:31.339Z,49.71
2022-08-30T15:33:58.922Z,49.19
2022-08-30T15:36:27.746Z,50.26
2022-08-30T15:38:56.103Z,51.24
2022-08-30T15:41:23.713Z,49.87
2022-08-30T15:43:51.782Z,49.75
2022-08-30T15:46:30.229Z,48.03
2022-08-30T15:49:01.216Z,48.26
2022-08-30T15:51:28.668Z,48.56
2022-08-30T15:53:58.147Z,49.67
2022-08-30T15:56:25.089Z,50.00
2022-08-30T15:58:53.015Z,48.94
2022-08-30T16:01:22.832Z,50.06
2022-08-30T16:03:58.491Z,49.64
2022-08-30T16:06:29.720Z,50.41
2022-08-30T16:08:56.983Z,50.96
2022-08-30T16:11:25.396Z,51.26
2022-08-30T16:13:54.820Z,51.34
2022-08-30T16:16:23.579Z,51.15
2022-08-30T16:18:53.686Z,53.03
2022-08-30T16:21:27.474Z,51.56
2022-08-30T16:23:59.957Z,50.82
2022-08-30T16:26:28.349Z,50.05
2022-08-30T16:28:55.669Z,50.82
2022-08-30T16:31:23.848Z,50.99
2022-08-30T16:33:52.775Z,50.81
2022-08-30T16:36:21.231Z,51.04
2022-08-30T16:38:48.418Z,51.68
2022-08-30T16:41:21.324Z,50.51
2022-08-30T16:43:49.834Z,50.66
2022-08-30T16:46:27.527Z,51.31
2022-08-30T16:48:56.648Z,50.99
2022-08-30T16:51:26.740Z,51.59
2022-08-30T16:53:58.948Z,51.39
2022-08-30T16:56:29.547Z,50.82
2022-08-30T16:59:02.144Z,50.41
2022-08-30T17:01:31.899Z,50.52
2022-08-30T17:03:59.751Z,51.40
2022-08-30T17:06:27.143Z,50.96
2022-08-30T17:08:56.009Z,51.15
2022-08-30T17:11:23.336Z,51.98
2022-08-30T17:13:50.842Z,52.75
2022-08-30T17:16:22.688Z,53.21
2022-08-30T17:18:56.175Z,52.34
2022-08-30T17:21:26.889Z,52.42
2022-08-30T17:23:53.690Z,52.45
2022-08-30T17:26:25.335Z,53.04
2022-08-30T17:28:53.250Z,53.77
2022-08-30T17:31:20.123Z,54.29
2022-08-30T17:33:46.988Z,55.44
2022-08-30T17:36:13.734Z,57.01
2022-08-30T17:38:44.812Z,55.30
2022-08-30T17:41:12.966Z,55.94
2022-08-30T17:43:40.427Z,58.63
2022-08-30T17:46:18.889Z,59.19
2022-08-30T17:48:45.888Z,57.86
2022-08-30T17:51:13.202Z,58.51
2022-08-30T17:53:40.092Z,58.96
2022-08-30T17:56:09.949Z,64.06
2022-08-30T17:58:36.779Z,60.12
2022-08-30T18:01:14.427Z,62.46
2022-08-30T18:03:45.373Z,63.97
2022-08-30T18:06:12.548Z,62.98
2022-08-30T18:08:39.469Z,63.61
2022-08-30T18:11:06.777Z,65.02
2022-08-30T18:13:33.545Z,69.98
2022-08-30T18:16:03.273Z,71.79
2022-08-30T18:18:31.032Z,74.52
2022-08-30T18:21:00.010Z,71.75
2022-08-30T18:23:27.630Z,77.35
2022-08-30T18:26:00.871Z,78.38
2022-08-30T18:28:29.798Z,78.83
2022-08-30T18:30:57.193Z,79.37
2022-08-30T18:33:28.602Z,79.16
2022-08-30T18:35:56.381Z,81.69
2022-08-30T18:38:24.864Z,80.99
2022-08-30T18:40:57.861Z,82.21
2022-08-30T18:43:30.828Z,83.11
2022-08-30T18:46:02.695Z,84.22
2022-08-30T18:48:29.917Z,84.00
2022-08-30T18:50:56.997Z,84.56
2022-08-30T18:53:28.647Z,88.25
2022-08-30T18:55:57.751Z,87.72
2022-08-30T18:58:24.900Z,91.69
2022-08-30T19:00:54.021Z,88.54
2022-08-30T19:03:22.952Z,89.94
2022-08-30T19:05:51.149Z,88.88
2022-08-30T19:08:18.416Z,90.09
2022-08-30T19:10:46.637Z,92.08
2022-08-30T19:13:14.180Z,88.18
2022-08-30T19:15:41.387Z,90.41
2022-08-30T19:18:16.780Z,90.02
2022-08-30T19:20:45.708Z,91.73
2022-08-30T19:23:14.610Z,93.37
2022-08-30T19:25:42.905Z,92.99
2022-08-30T19:28:11.246Z,93.08
2022-08-30T19:30:38.756Z,95.24
2022-08-30T19:33:06.401Z,94.73
2022-08-30T19:35:33.850Z,96.27
2022-08-30T19:38:01.114Z,95.78
2022-08-30T19:40:28.636Z,97.61
2022-08-30T19:42:55.723Z,96.70
2022-08-30T19:45:23.152Z,96.96
2022-08-30T19:47:51.210Z,98.19
2022-08-30T19:50:19.230Z,98.85
2022-08-30T19:52:52.703Z,100.00
2022-08-30T19:55:28.186Z,100.00
2022-08-30T19:57:55.694Z,97.50
2022-08-30T20:00:23.594Z,100.00
2022-08-30T20:02:51.480Z,98.99
2022-08-30T20:05:19.461Z,99.85
2022-08-30T20:07:48.643Z,100.00
2022-08-30T20:10:20.055Z,100.00
2022-08-30T20:12:50.168Z,100.00
2022-08-30T20:15:18.675Z,100.00
2022-08-30T20:18:05.508Z,100.00
2022-08-30T20:20:36.480Z,100.00
2022-08-30T20:23:05.058Z,100.00
2022-08-30T20:25:32.023Z,100.00
2022-08-30T20:27:59.592Z,100.00
2022-08-30T20:30:27.416Z,100.00
2022-08-30T20:32:54.791Z,100.00
2022-08-30T20:35:21.944Z,100.00
2022-08-30T20:37:49.493Z,100.00
2022-08-30T20:40:16.973Z,100.00
2022-08-30T20:42:45.864Z,100.00
2022-08-30T20:45:14.886Z,100.00
2022-08-30T20:47:43.184Z,100.00
2022-08-30T20:50:14.026Z,100.00
2022-08-30T20:52:41.533Z,100.00
2022-08-30T20:55:09.544Z,100.00
2022-08-30T20:57:36.403Z,100.00
2022-08-30T21:00:08.285Z,100.00
2022-08-30T21:02:37.070Z,100.00
2022-08-30T21:05:11.789Z,100.00
2022-08-30T21:07:38.943Z,100.00
2022-08-30T21:10:06.265Z,100.00
2022-08-30T21:12:33.038Z,100.00
2022-08-30T21:15:07.372Z,100.00
2022-08-30T21:17:42.462Z,100.00
2022-08-30T21:20:10.179Z,100.00
2022-08-30T21:22:38.420Z,100.00
2022-08-30T21:25:05.831Z,100.00
2022-08-30T21:27:32.564Z,100.00
2022-08-30T21:29:59.348Z,100.00
2022-08-30T21:32:26.066Z,100.00
2022-08-30T21:35:11.316Z,100.00
2022-08-30T21:37:38.125Z,100.00
2022-08-30T21:40:05.433Z,100.00
2022-08-30T21:42:32.734Z,100.00
2022-08-30T21:44:59.645Z,100.00
2022-08-30T21:47:26.585Z,100.00
2022-08-30T21:49:53.344Z,100.00
2022-08-30T21:52:20.094Z,100.00
2022-08-30T21:54:47.061Z,100.00
2022-08-30T21:57:16.357Z,100.00
2022-08-30T21:59:44.912Z,100.00
2022-08-30T22:02:12.314Z,100.00
2022-08-30T22:04:40.912Z,100.00
2022-08-30T22:07:08.576Z,100.00
2022-08-30T22:09:35.849Z,100.00
2022-08-30T22:12:06.839Z,100.00
2022-08-30T22:14:35.255Z,100.00
2022-08-30T22:17:02.196Z,100.00
2022-08-30T22:19:31.588Z,100.00
2022-08-30T22:22:01.212Z,100.00
2022-08-30T22:24:32.246Z,100.00
2022-08-30T22:27:00.174Z,100.00
2022-08-30T22:29:27.009Z,100.00
2022-08-30T22:31:54.424Z,100.00
2022-08-30T22:34:21.319Z,100.00
2022-08-30T22:36:48.107Z,100.00
2022-08-30T22:39:14.994Z,100.00
2022-08-30T22:41:43.024Z,100.00
2022-08-30T22:44:10.001Z,100.00
2022-08-30T22:46:37.956Z,100.00
2022-08-30T22:49:06.617Z,100.00
2022-08-30T22:51:34.522Z,100.00
2022-08-30T22:54:02.048Z,100.00
2022-08-30T22:56:29.799Z,100.00
2022-08-30T22:58:58.017Z,100.00
2022-08-30T23:01:28.605Z,100.00
2022-08-30T23:03:55.813Z,100.00
2022-08-30T23:06:22.816Z,100.00
2022-08-30T23:08:49.914Z,100.00
2022-08-30T23:11:16.999Z,100.00
2022-08-30T23:13:44.401Z,100.00
2022-08-30T23:16:12.424Z,100.00
2022-08-30T23:18:42.373Z,100.00
2022-08-30T23:21:12.859Z,100.00
2022-08-30T23:23:58.666Z,100.00
2022-08-30T23:26:44.163Z,100.00
2022-08-30T23:29:30.792Z,100.00
2022-08-30T23:32:16.289Z,100.00
2022-08-30T23:35:01.839Z,100.00
2022-08-30T23:37:48.482Z,100.00
2022-08-30T23:40:35.118Z,100.00
2022-08-30T23:43:20.683Z,100.00
2022-08-30T23:46:06.263Z,100.00
2022-08-30T23:48:52.158Z,100.00
2022-08-30T23:51:37.998Z,100.00
2022-08-30T23:54:25.111Z,100.00
2022-08-30T23:57:10.670Z,100.00
2022-08-30T23:59:56.298Z,100.00
